Aérodrome :
LOGIN :

S'inscrire | Disclaimer

   EN    FR    IT 

 










Légende :    VFR   VFR Marginal   IFR   IFR Intensif   IFR Très Intensif
Visi : 
Plafond : 
>= 8 km
>= 3000ft
5 à 8 km
1000 à 3000 ft
1500m à 5 km
500 à 1000 ft
800 à 1500m
200 à 500 ft
< 800m
< 200 ft
Symboles :   Orages  Brouillard  Fortes neiges  Fortes précipitations  Vent > 20 kt
SIGMETs :   Divers  Orages  Givrage  Turbulence  Onde Orograph.  Cendres Volcan.






- Altitude de l'aérodrome : 461 ft
- Code IATA : WIE


ETOU - Wiesbaden Army

DERNIER METAR :
  • 202156Z AUTO 00000KT 9999 SCT170 04/00 A2955 RMK AO2 SLP014 T00441004

METARs EXPIRÉS :
  • 202056Z AUTO 00000KT 9999 CLR 05/00 A2956 RMK AO2 SLP018 T00531003 57010
  • 201956Z AUTO 00000KT 9999 FEW170 FEW220 05/00 A2957 RMK AO2 SLP022 T00541002

TAF TAF ETOU
Valide du 20 à 13h jusqu'au 21 à 19h UTC


201305Z 2013/2119 15009KT 9999 SCT030 BKN120 QNH2961INS
BECMG 2017/2018 18008KT 9999 FEW030 SCT120 QNH2955INS
BECMG 2105/2106 19015G25KT 8000 -RA FEW010 BKN020 620208 510006 QNH2945INS
BECMG 2108/2109 22020G30KT 8000 -RA FEW010 BKN015 620158 510006 QNH2945INS
BECMG 2111/2112 23012G18KT 9999 NSW SCT030 QNH2940INS
BECMG 2117/2118 19015G25KT 5000 RA BKN015 620158 510006 QNH2938INS TX07/2112Z TN04/2021Z



MET'MAP, la Météo Aéronautique d'un coup d'oeil ! - Copyright ORBIFLY Décembre 2007 - Disclaimer

ORBIFLY MET'MAP TEAM :

Programmation & Développement : Alexandra Zaïnal
Sur une idée originale de : Baudouin d'Aumeries
Assistance à la programmation : Marc-Olivier Méhu
Soutien technique & logistique : Manuel Goepfert

Contact : metmap@orbifly.com




SOURCES & CREDITS :

   NOAA